createdAt,value
2023-04-23T00:00:22.158Z,14.12
2023-04-23T00:02:48.596Z,14.09
2023-04-23T00:05:15.058Z,14.08
2023-04-23T00:07:41.397Z,14.07
2023-04-23T00:10:07.776Z,14.06
2023-04-23T00:12:34.164Z,14.06
2023-04-23T00:15:00.512Z,14.04
2023-04-23T00:17:26.869Z,13.99
2023-04-23T00:19:53.236Z,13.95
2023-04-23T00:22:19.619Z,13.98
2023-04-23T00:24:45.996Z,13.97
2023-04-23T00:27:12.388Z,13.97
2023-04-23T00:29:38.788Z,13.94
2023-04-23T00:32:05.210Z,13.90
2023-04-23T00:34:31.612Z,13.93
2023-04-23T00:36:57.939Z,13.95
2023-04-23T00:39:24.314Z,13.97
2023-04-23T00:41:50.672Z,13.99
2023-04-23T00:44:17.057Z,14.01
2023-04-23T00:46:43.409Z,13.95
2023-04-23T00:49:09.806Z,13.93
2023-04-23T00:51:36.167Z,13.93
2023-04-23T00:54:02.567Z,13.94
2023-04-23T00:56:28.964Z,13.83
2023-04-23T00:58:55.357Z,13.83
2023-04-23T01:01:21.724Z,13.76
2023-04-23T01:03:48.259Z,13.77
2023-04-23T01:06:14.696Z,13.76
2023-04-23T01:08:41.022Z,13.76
2023-04-23T01:11:07.403Z,13.74
2023-04-23T01:13:33.754Z,13.77
2023-04-23T01:16:00.187Z,13.74
2023-04-23T01:18:26.566Z,13.77
2023-04-23T01:20:53.035Z,13.83
2023-04-23T01:23:19.424Z,13.76
2023-04-23T01:25:45.812Z,13.72
2023-04-23T01:28:12.212Z,13.74
2023-04-23T01:30:38.600Z,13.72
2023-04-23T01:33:04.950Z,13.74
2023-04-23T01:35:31.293Z,13.74
2023-04-23T01:37:57.627Z,13.74
2023-04-23T01:40:24.020Z,13.74
2023-04-23T01:42:50.408Z,13.75
2023-04-23T01:45:16.892Z,13.76
2023-04-23T01:47:43.322Z,13.78
2023-04-23T01:50:09.739Z,13.75
2023-04-23T01:52:36.151Z,13.79
2023-04-23T01:55:02.519Z,13.76
2023-04-23T01:57:28.874Z,13.79
2023-04-23T01:59:55.195Z,13.75
2023-04-23T02:02:21.623Z,13.75
2023-04-23T02:04:47.985Z,13.76
2023-04-23T02:07:14.377Z,13.73
2023-04-23T02:09:40.775Z,13.74
2023-04-23T02:12:07.221Z,13.79
2023-04-23T02:14:33.583Z,13.77
2023-04-23T02:16:59.924Z,13.75
2023-04-23T02:19:26.256Z,13.76
2023-04-23T02:21:52.616Z,13.78
2023-04-23T02:24:18.948Z,13.75
2023-04-23T02:26:45.331Z,13.75
2023-04-23T02:29:11.677Z,13.74
2023-04-23T02:31:38.108Z,13.77
2023-04-23T02:34:04.531Z,13.82
2023-04-23T02:36:30.906Z,13.83
2023-04-23T02:38:57.248Z,13.84
2023-04-23T02:41:23.632Z,13.79
2023-04-23T02:43:50.029Z,13.76
2023-04-23T02:46:16.472Z,13.76
2023-04-23T02:48:42.873Z,13.81
2023-04-23T02:51:09.262Z,13.78
2023-04-23T02:53:35.643Z,13.77
2023-04-23T02:56:01.987Z,13.74
2023-04-23T02:58:28.334Z,13.76
2023-04-23T03:00:54.681Z,13.77
2023-04-23T03:03:21.272Z,13.80
2023-04-23T03:05:47.699Z,13.75
2023-04-23T03:08:14.041Z,13.75
2023-04-23T03:10:40.388Z,13.79
2023-04-23T03:13:06.757Z,13.71
2023-04-23T03:15:33.111Z,13.75
2023-04-23T03:17:59.481Z,13.78
2023-04-23T03:20:25.911Z,13.77
2023-04-23T03:22:52.259Z,13.77
2023-04-23T03:25:18.654Z,13.79
2023-04-23T03:27:45.038Z,13.75
2023-04-23T03:30:11.411Z,13.71
2023-04-23T03:32:37.861Z,13.68
2023-04-23T03:35:04.235Z,13.72
2023-04-23T03:37:30.617Z,13.72
2023-04-23T03:39:56.976Z,13.73
2023-04-23T03:42:23.311Z,13.72
2023-04-23T03:44:49.693Z,13.66
2023-04-23T03:47:16.050Z,13.60
2023-04-23T03:49:42.426Z,13.54
2023-04-23T03:52:08.826Z,13.51
2023-04-23T03:54:35.225Z,13.59
2023-04-23T03:57:01.574Z,13.55
2023-04-23T03:59:27.965Z,13.56
2023-04-23T04:01:54.322Z,13.54
2023-04-23T04:04:20.902Z,13.48
2023-04-23T04:06:47.392Z,13.45
2023-04-23T04:09:13.721Z,13.45
2023-04-23T04:11:40.061Z,13.44
2023-04-23T04:14:06.385Z,13.46
2023-04-23T04:16:32.826Z,13.46
2023-04-23T04:18:59.194Z,13.45
2023-04-23T04:21:25.572Z,13.55
2023-04-23T04:23:51.945Z,13.76
2023-04-23T04:26:18.281Z,13.86
2023-04-23T04:28:44.625Z,13.89
2023-04-23T04:31:11.040Z,13.80
2023-04-23T04:33:37.477Z,13.73
2023-04-23T04:36:03.866Z,13.69
2023-04-23T04:38:30.262Z,13.56
2023-04-23T04:40:56.646Z,13.59
2023-04-23T04:43:23.048Z,13.79
2023-04-23T04:45:49.390Z,13.83
2023-04-23T04:48:15.759Z,13.83
2023-04-23T04:50:42.113Z,13.82
2023-04-23T04:53:08.443Z,13.79
2023-04-23T04:55:34.781Z,13.73
2023-04-23T04:58:01.116Z,13.61
2023-04-23T05:00:27.489Z,13.55
2023-04-23T05:02:53.973Z,13.52
2023-04-23T05:05:20.502Z,13.61
2023-04-23T05:07:46.899Z,13.74
2023-04-23T05:10:13.289Z,13.84
2023-04-23T05:12:39.635Z,13.83
2023-04-23T05:15:06.008Z,13.90
2023-04-23T05:17:32.373Z,13.84
2023-04-23T05:19:58.776Z,13.89
2023-04-23T05:22:25.156Z,13.83
2023-04-23T05:24:51.526Z,13.77
2023-04-23T05:27:17.946Z,13.71
2023-04-23T05:29:44.360Z,13.55
2023-04-23T05:32:10.835Z,13.53
2023-04-23T05:34:37.206Z,13.59
2023-04-23T05:37:03.547Z,13.65
2023-04-23T05:39:30.169Z,13.61
2023-04-23T05:41:56.513Z,13.50
2023-04-23T05:44:22.859Z,13.42
2023-04-23T05:46:49.242Z,13.46
2023-04-23T05:49:15.591Z,13.62
2023-04-23T05:51:41.984Z,13.77
2023-04-23T05:54:08.341Z,13.87
2023-04-23T05:56:34.724Z,13.95
2023-04-23T05:59:01.109Z,14.02
2023-04-23T06:01:27.453Z,14.07
2023-04-23T06:03:53.998Z,14.16
2023-04-23T06:06:20.485Z,14.26
2023-04-23T06:08:46.866Z,14.38
2023-04-23T06:11:13.220Z,14.42
2023-04-23T06:13:40.944Z,14.44
2023-04-23T06:16:09.450Z,14.46
2023-04-23T06:18:35.863Z,14.48
2023-04-23T06:21:02.212Z,14.47
2023-04-23T06:23:28.606Z,14.47
2023-04-23T06:25:55.007Z,14.50
2023-04-23T06:28:21.399Z,14.52
2023-04-23T06:30:47.788Z,14.49
2023-04-23T06:33:14.140Z,14.51
2023-04-23T06:35:40.524Z,14.52
2023-04-23T06:38:06.904Z,14.59
2023-04-23T06:40:33.292Z,14.62
2023-04-23T06:42:59.635Z,14.64
2023-04-23T06:45:26.014Z,14.71
2023-04-23T06:47:52.452Z,14.72
2023-04-23T06:50:18.845Z,14.76
2023-04-23T06:52:45.189Z,14.82
2023-04-23T06:55:11.568Z,14.84
2023-04-23T06:57:37.928Z,14.80
2023-04-23T07:00:04.288Z,14.76
2023-04-23T07:02:30.718Z,14.77
2023-04-23T07:04:57.088Z,14.76
2023-04-23T07:07:23.434Z,14.81
2023-04-23T07:09:49.814Z,14.85
2023-04-23T07:12:16.218Z,14.82
2023-04-23T07:14:42.836Z,14.76
2023-04-23T07:17:09.390Z,14.72
2023-04-23T07:19:35.774Z,14.67
2023-04-23T07:22:02.135Z,14.68
2023-04-23T07:24:28.466Z,14.64
2023-04-23T07:26:54.817Z,14.64
2023-04-23T07:29:21.195Z,14.65
2023-04-23T07:31:47.579Z,14.68
2023-04-23T07:34:13.989Z,14.68
2023-04-23T07:36:40.354Z,14.85
2023-04-23T07:39:06.737Z,14.91
2023-04-23T07:41:33.097Z,14.98
2023-04-23T07:43:59.476Z,15.01
2023-04-23T07:46:25.882Z,15.09
2023-04-23T07:48:52.300Z,15.01
2023-04-23T07:51:18.651Z,15.07
2023-04-23T07:53:45.033Z,15.08
2023-04-23T07:56:11.426Z,15.17
2023-04-23T07:58:37.833Z,15.17
2023-04-23T08:01:04.228Z,15.21
2023-04-23T08:03:30.691Z,15.27
2023-04-23T08:05:57.093Z,15.20
2023-04-23T08:08:23.505Z,15.11
2023-04-23T08:10:49.853Z,15.00
2023-04-23T08:13:16.184Z,14.99
2023-04-23T08:15:42.594Z,15.03
2023-04-23T08:18:08.980Z,15.15
2023-04-23T08:20:35.356Z,15.25
2023-04-23T08:23:01.732Z,15.16
2023-04-23T08:25:28.104Z,15.12
2023-04-23T08:27:54.498Z,15.21
2023-04-23T08:30:20.919Z,15.32
2023-04-23T08:32:47.350Z,15.42
2023-04-23T08:35:13.758Z,15.39
2023-04-23T08:37:40.142Z,15.26
2023-04-23T08:40:06.538Z,15.23
2023-04-23T08:42:32.926Z,15.34
2023-04-23T08:44:59.311Z,15.40
2023-04-23T08:47:25.698Z,15.49
2023-04-23T08:49:52.060Z,15.43
2023-04-23T08:52:18.451Z,15.48
2023-04-23T08:54:44.860Z,15.52
2023-04-23T08:57:11.260Z,15.41
2023-04-23T08:59:37.615Z,15.39
2023-04-23T09:02:04.037Z,15.44
2023-04-23T09:04:30.446Z,15.48
2023-04-23T09:06:56.842Z,15.59
2023-04-23T09:09:23.200Z,15.62
2023-04-23T09:11:49.671Z,15.70
2023-04-23T09:14:16.062Z,15.75
2023-04-23T09:16:42.466Z,15.74
2023-04-23T09:19:08.929Z,15.77
2023-04-23T09:21:35.339Z,15.58
2023-04-23T09:24:01.677Z,15.63
2023-04-23T09:26:28.085Z,15.56
2023-04-23T09:28:54.480Z,15.63
2023-04-23T09:31:20.835Z,15.66
2023-04-23T09:33:47.179Z,15.77
2023-04-23T09:36:13.526Z,16.12
2023-04-23T09:38:39.880Z,16.12
2023-04-23T09:41:06.246Z,16.13
2023-04-23T09:43:32.632Z,16.22
2023-04-23T09:45:58.998Z,16.18
2023-04-23T09:48:25.349Z,16.34
2023-04-23T09:50:51.732Z,16.38
2023-04-23T09:53:18.082Z,16.36
2023-04-23T09:55:44.480Z,16.44
2023-04-23T09:58:10.843Z,16.49
2023-04-23T10:00:43.762Z,16.44
2023-04-23T10:03:10.466Z,16.39
2023-04-23T10:05:45.314Z,16.56
2023-04-23T10:08:23.286Z,16.85
2023-04-23T10:13:20.789Z,17.03
2023-04-23T10:15:47.734Z,17.12
2023-04-23T10:18:14.137Z,17.26
2023-04-23T10:20:40.484Z,17.45
2023-04-23T10:23:06.884Z,17.66
2023-04-23T10:25:33.261Z,17.81
2023-04-23T10:27:59.621Z,17.75
2023-04-23T10:30:25.998Z,17.67
2023-04-23T10:32:52.452Z,17.84
2023-04-23T10:35:18.820Z,17.97
2023-04-23T10:37:45.199Z,18.13
2023-04-23T10:40:11.611Z,18.15
2023-04-23T10:42:38.012Z,18.20
2023-04-23T10:45:13.101Z,18.28
2023-04-23T10:47:47.188Z,18.37
2023-04-23T10:50:13.636Z,18.57
2023-04-23T10:52:39.975Z,18.56
2023-04-23T10:55:06.358Z,18.66
2023-04-23T10:57:32.754Z,18.56
2023-04-23T10:59:59.236Z,18.65
2023-04-23T11:02:25.766Z,18.58
2023-04-23T11:04:52.579Z,18.55
2023-04-23T11:07:19.097Z,18.45
2023-04-23T11:09:45.508Z,18.57
2023-04-23T11:12:11.901Z,18.63
2023-04-23T11:14:38.323Z,18.56
2023-04-23T11:17:04.666Z,18.75
2023-04-23T11:19:31.037Z,18.67
2023-04-23T11:21:57.387Z,18.84
2023-04-23T11:24:23.795Z,18.89
2023-04-23T11:26:50.184Z,18.85
2023-04-23T11:29:16.550Z,18.86
2023-04-23T11:31:50.817Z,18.86
2023-04-23T11:34:27.084Z,19.04
2023-04-23T11:36:53.439Z,18.87
2023-04-23T11:39:19.824Z,18.98
2023-04-23T11:41:46.217Z,19.04
2023-04-23T11:44:12.565Z,19.13
2023-04-23T11:46:38.904Z,19.13
2023-04-23T11:49:05.249Z,19.34
2023-04-23T11:51:31.591Z,19.29
2023-04-23T11:53:57.924Z,19.22
2023-04-23T11:56:24.313Z,19.37
2023-04-23T11:58:50.659Z,19.39
2023-04-23T12:01:17.797Z,19.44
2023-04-23T12:03:44.336Z,19.38
2023-04-23T12:06:10.738Z,19.60
2023-04-23T12:08:37.070Z,19.60
2023-04-23T12:11:03.403Z,19.58
2023-04-23T12:13:29.784Z,19.62
2023-04-23T12:15:56.241Z,19.70
2023-04-23T12:18:22.708Z,19.62
2023-04-23T12:20:49.097Z,19.57
2023-04-23T12:23:15.443Z,19.50
2023-04-23T12:25:41.830Z,19.68
2023-04-23T12:28:08.268Z,19.62
2023-04-23T12:30:34.637Z,19.50
2023-04-23T12:33:01.158Z,19.56
2023-04-23T12:35:27.517Z,19.66
2023-04-23T12:37:53.860Z,19.91
2023-04-23T12:40:20.235Z,19.96
2023-04-23T12:42:46.581Z,20.02
2023-04-23T12:45:12.961Z,20.13
2023-04-23T12:47:39.379Z,19.98
2023-04-23T12:50:06.973Z,19.94
2023-04-23T12:52:33.360Z,19.89
2023-04-23T12:54:59.714Z,19.95
2023-04-23T12:57:26.061Z,19.72
2023-04-23T12:59:52.403Z,19.81
2023-04-23T13:02:18.822Z,19.80
2023-04-23T13:04:45.323Z,19.82
2023-04-23T13:07:11.720Z,19.63
2023-04-23T13:09:38.082Z,19.81
2023-04-23T13:12:04.438Z,19.82
2023-04-23T13:14:30.785Z,20.05
2023-04-23T13:16:57.130Z,20.01
2023-04-23T13:19:23.481Z,19.89
2023-04-23T13:21:49.903Z,19.83
2023-04-23T13:24:16.249Z,19.58
2023-04-23T13:26:42.590Z,19.59
2023-04-23T13:29:08.958Z,19.65
2023-04-23T13:31:35.349Z,19.64
2023-04-23T13:34:01.762Z,19.47
2023-04-23T13:36:28.145Z,19.33
2023-04-23T13:38:54.555Z,19.30
2023-04-23T13:41:20.936Z,19.27
2023-04-23T13:43:47.307Z,19.30
2023-04-23T13:46:13.754Z,19.23
2023-04-23T13:48:40.154Z,19.09
2023-04-23T13:51:16.921Z,19.09
2023-04-23T13:53:52.755Z,19.35
2023-04-23T13:56:19.104Z,19.16
2023-04-23T13:58:45.491Z,19.08
2023-04-23T14:01:11.913Z,19.03
2023-04-23T14:03:38.312Z,19.02
2023-04-23T14:06:04.822Z,18.88
2023-04-23T14:08:31.191Z,18.94
2023-04-23T14:10:57.569Z,18.95
2023-04-23T14:13:23.922Z,18.99
2023-04-23T14:15:50.331Z,19.05
2023-04-23T14:18:16.728Z,19.19
2023-04-23T14:20:43.113Z,19.54
2023-04-23T14:23:09.455Z,19.91
2023-04-23T14:25:35.800Z,19.94
2023-04-23T14:28:02.147Z,19.90
2023-04-23T14:30:28.498Z,19.84
2023-04-23T14:32:54.938Z,19.77
2023-04-23T14:35:35.679Z,19.91
2023-04-23T14:38:07.793Z,20.01
2023-04-23T14:40:34.180Z,20.13
2023-04-23T14:43:12.185Z,20.14
2023-04-23T14:45:41.716Z,20.10
2023-04-23T14:48:08.098Z,20.29
2023-04-23T14:50:34.477Z,20.64
2023-04-23T14:53:00.858Z,20.74
2023-04-23T14:55:27.264Z,20.79
2023-04-23T14:57:53.622Z,20.81
2023-04-23T15:00:20.766Z,20.68
2023-04-23T15:02:47.427Z,20.41
2023-04-23T15:05:13.917Z,20.12
2023-04-23T15:07:40.304Z,19.83
2023-04-23T15:10:06.722Z,19.60
2023-04-23T15:12:33.080Z,19.58
2023-04-23T15:14:59.462Z,19.55
2023-04-23T15:17:25.859Z,19.44
2023-04-23T15:19:52.247Z,19.32
2023-04-23T15:22:18.585Z,18.92
2023-04-23T15:24:44.917Z,18.62
2023-04-23T15:27:11.246Z,18.35
2023-04-23T15:29:37.613Z,18.34
2023-04-23T15:32:04.069Z,18.25
2023-04-23T15:34:30.520Z,18.08
2023-04-23T15:36:56.910Z,18.00
2023-04-23T15:39:23.257Z,17.68
2023-04-23T15:41:49.619Z,17.52
2023-04-23T15:44:15.960Z,17.35
2023-04-23T15:46:42.340Z,16.92
2023-04-23T15:49:08.687Z,16.63
2023-04-23T15:51:35.066Z,16.49
2023-04-23T15:54:01.449Z,16.44
2023-04-23T15:56:27.796Z,16.26
2023-04-23T15:58:54.207Z,15.86
2023-04-23T16:01:20.586Z,15.60
2023-04-23T16:04:01.847Z,15.49
2023-04-23T16:06:33.314Z,15.44
2023-04-23T16:08:59.694Z,15.31
2023-04-23T16:11:26.034Z,15.26
2023-04-23T16:13:52.358Z,15.21
2023-04-23T16:16:18.721Z,15.24
2023-04-23T16:18:45.107Z,15.23
2023-04-23T16:21:11.443Z,15.19
2023-04-23T16:23:37.785Z,15.22
2023-04-23T16:26:04.115Z,15.20
2023-04-23T16:28:30.510Z,15.24
2023-04-23T16:30:56.885Z,15.23
2023-04-23T16:33:23.243Z,15.19
2023-04-23T16:35:49.623Z,15.15
2023-04-23T16:38:15.967Z,15.11
2023-04-23T16:40:42.342Z,15.08
2023-04-23T16:43:08.696Z,15.05
2023-04-23T16:45:35.070Z,14.95
2023-04-23T16:48:01.417Z,14.91
2023-04-23T16:50:27.803Z,14.87
2023-04-23T16:52:54.491Z,14.85
2023-04-23T16:55:20.873Z,14.77
2023-04-23T16:57:47.263Z,14.71
2023-04-23T17:00:13.655Z,14.70
2023-04-23T17:02:40.080Z,14.68
2023-04-23T17:05:06.587Z,14.65
2023-04-23T17:07:32.971Z,14.63
2023-04-23T17:09:59.308Z,14.62
2023-04-23T17:12:25.693Z,14.60
2023-04-23T17:14:52.090Z,14.62
2023-04-23T17:17:18.468Z,14.60
2023-04-23T17:19:44.815Z,14.66
2023-04-23T17:22:11.158Z,14.67
2023-04-23T17:24:39.012Z,14.69
2023-04-23T17:27:05.630Z,14.72
2023-04-23T17:29:31.983Z,14.77
2023-04-23T17:31:58.457Z,14.70
2023-04-23T17:34:24.866Z,14.66
2023-04-23T17:36:51.287Z,14.61
2023-04-23T17:39:17.666Z,14.58
2023-04-23T17:41:44.007Z,14.55
2023-04-23T17:44:10.378Z,14.49
2023-04-23T17:46:36.723Z,14.46
2023-04-23T17:49:03.064Z,14.40
2023-04-23T17:51:29.451Z,14.45
2023-04-23T17:53:55.860Z,14.45
2023-04-23T17:56:22.206Z,14.43
2023-04-23T17:58:48.559Z,14.43
2023-04-23T18:01:14.957Z,14.48
2023-04-23T18:03:41.438Z,14.52
2023-04-23T18:06:07.931Z,14.56
2023-04-23T18:08:34.317Z,14.58
2023-04-23T18:11:00.708Z,14.51
2023-04-23T18:13:27.095Z,14.46
2023-04-23T18:15:53.475Z,14.49
2023-04-23T18:18:19.870Z,14.50
2023-04-23T18:20:46.412Z,14.54
2023-04-23T18:23:12.859Z,14.54
2023-04-23T18:25:39.253Z,14.52
2023-04-23T18:28:05.627Z,14.49
2023-04-23T18:30:31.988Z,14.47
2023-04-23T18:32:58.383Z,14.51
2023-04-23T18:35:24.777Z,14.48
2023-04-23T18:37:51.114Z,14.51
2023-04-23T18:40:17.497Z,14.48
2023-04-23T18:42:43.855Z,14.47
2023-04-23T18:45:10.202Z,14.49
2023-04-23T18:47:36.585Z,14.49
2023-04-23T18:50:02.996Z,14.49
2023-04-23T18:52:29.347Z,14.47
2023-04-23T18:54:55.718Z,14.40
2023-04-23T18:57:22.100Z,14.39
2023-04-23T18:59:48.510Z,14.37
2023-04-23T19:02:24.760Z,14.35
2023-04-23T19:05:00.691Z,14.31
2023-04-23T19:07:27.086Z,14.24
2023-04-23T19:09:53.431Z,14.24
2023-04-23T19:12:20.495Z,14.24
2023-04-23T19:14:46.883Z,14.19
2023-04-23T19:17:13.234Z,14.18
2023-04-23T19:19:39.739Z,14.10
2023-04-23T19:22:06.220Z,14.09
2023-04-23T19:24:32.603Z,14.15
2023-04-23T19:26:59.005Z,14.14
2023-04-23T19:29:25.357Z,14.01
2023-04-23T19:31:51.859Z,14.02
2023-04-23T19:34:18.253Z,13.89
2023-04-23T19:36:44.621Z,13.86
2023-04-23T19:39:10.970Z,13.82
2023-04-23T19:41:37.342Z,13.77
2023-04-23T19:44:03.695Z,13.78
2023-04-23T19:46:30.120Z,13.80
2023-04-23T19:48:56.515Z,13.78
2023-04-23T19:51:22.892Z,13.77
2023-04-23T19:53:49.274Z,13.77
2023-04-23T19:56:15.658Z,13.72
2023-04-23T19:58:41.995Z,13.74
2023-04-23T20:01:08.389Z,13.72
2023-04-23T20:03:34.984Z,13.69
2023-04-23T20:06:01.476Z,13.66
2023-04-23T20:08:27.824Z,13.67
2023-04-23T20:10:54.184Z,13.72
2023-04-23T20:13:20.639Z,13.74
2023-04-23T20:15:48.623Z,13.70
2023-04-23T20:18:16.163Z,13.70
2023-04-23T20:20:42.502Z,13.73
2023-04-23T20:23:08.886Z,13.73
2023-04-23T20:25:35.233Z,13.73
2023-04-23T20:28:01.597Z,13.73
2023-04-23T20:30:27.941Z,13.73
2023-04-23T20:32:54.348Z,13.76
2023-04-23T20:35:20.752Z,13.75
2023-04-23T20:37:47.136Z,13.72
2023-04-23T20:40:13.483Z,13.74
2023-04-23T20:42:39.823Z,13.74
2023-04-23T20:45:06.205Z,13.80
2023-04-23T20:47:32.628Z,13.81
2023-04-23T20:49:58.978Z,13.80
2023-04-23T20:52:25.322Z,13.87
2023-04-23T20:54:51.700Z,13.93
2023-04-23T20:57:18.054Z,13.97
2023-04-23T20:59:44.599Z,13.99
2023-04-23T21:02:11.124Z,14.04
2023-04-23T21:04:37.796Z,14.11
2023-04-23T21:07:04.245Z,14.13
2023-04-23T21:09:30.579Z,14.12
2023-04-23T21:11:57.003Z,14.13
2023-04-23T21:14:23.430Z,14.17
2023-04-23T21:16:49.812Z,14.22
2023-04-23T21:19:16.158Z,14.27
2023-04-23T21:21:42.538Z,14.27
2023-04-23T21:24:08.912Z,14.26
2023-04-23T21:26:35.270Z,14.25
2023-04-23T21:29:01.640Z,14.24
2023-04-23T21:31:28.024Z,14.23
2023-04-23T21:33:56.590Z,14.26
2023-04-23T21:36:23.774Z,14.29
2023-04-23T21:38:50.119Z,14.28
2023-04-23T21:41:16.493Z,14.24
2023-04-23T21:43:42.844Z,14.18
2023-04-23T21:46:09.180Z,14.14
2023-04-23T21:48:35.553Z,14.03
2023-04-23T21:51:01.957Z,13.96
2023-04-23T21:53:28.294Z,13.88
2023-04-23T21:55:54.642Z,13.88
2023-04-23T21:58:20.978Z,13.83
2023-04-23T22:00:47.341Z,13.78
2023-04-23T22:03:17.643Z,13.69
2023-04-23T22:05:47.175Z,13.65
2023-04-23T22:08:13.569Z,13.58
2023-04-23T22:10:39.958Z,13.49
2023-04-23T22:13:06.343Z,13.43
2023-04-23T22:15:32.718Z,13.45
2023-04-23T22:17:59.152Z,13.46
2023-04-23T22:20:25.557Z,13.43
2023-04-23T22:22:51.962Z,13.48
2023-04-23T22:25:18.308Z,13.55
2023-04-23T22:27:44.652Z,13.47
2023-04-23T22:30:11.032Z,13.40
2023-04-23T22:32:37.436Z,13.14
2023-04-23T22:35:03.892Z,12.91
2023-04-23T22:37:30.310Z,12.52
2023-04-23T22:39:56.706Z,11.96
2023-04-23T22:42:23.060Z,11.84
2023-04-23T22:44:49.382Z,11.85
2023-04-23T22:47:15.744Z,11.89
2023-04-23T22:49:42.335Z,11.81
2023-04-23T22:52:08.913Z,11.77
2023-04-23T22:54:35.292Z,11.80
2023-04-23T22:57:01.691Z,11.80
2023-04-23T22:59:28.064Z,11.79
2023-04-23T23:01:54.444Z,11.58
2023-04-23T23:04:20.820Z,11.66
2023-04-23T23:06:47.188Z,11.64
2023-04-23T23:09:13.515Z,11.64
2023-04-23T23:11:39.890Z,11.79
2023-04-23T23:14:06.272Z,11.84
2023-04-23T23:16:32.622Z,11.97
2023-04-23T23:18:58.956Z,11.98
2023-04-23T23:21:25.338Z,11.99
2023-04-23T23:23:51.727Z,11.91
2023-04-23T23:26:18.110Z,11.75
2023-04-23T23:28:44.461Z,11.63
2023-04-23T23:31:10.846Z,11.72
2023-04-23T23:33:37.228Z,11.67
2023-04-23T23:36:03.562Z,11.63
2023-04-23T23:38:29.953Z,11.77
2023-04-23T23:40:56.294Z,11.70
2023-04-23T23:43:22.632Z,11.55
2023-04-23T23:45:49.016Z,11.62
2023-04-23T23:48:15.416Z,11.73
2023-04-23T23:50:41.769Z,11.71
2023-04-23T23:53:08.098Z,11.84
2023-04-23T23:55:34.445Z,11.78
2023-04-23T23:58:00.798Z,11.80
